Time;durP1;ratioP1;P1;durP2;ratioP2;P2;SDS_P1;SDS_P2;PMS_P1;PMS_P2;Temp;Humidity;BMP_temperature;BMP_pressure;BME280_temperature;BME280_humidity;BME280_pressure;Samples;Min_cycle;Max_cycle;Signal;HPM_P1;HPM_P2
2022/11/08 00:01:30;;;;;;;4.78;1.95;;;13.90;99.10;;;;;;5099396;28;20397;-81
2022/11/08 00:03:08;;;;;;;3.85;1.90;;;13.90;99.10;;;;;;5094673;28;20081;-81
2022/11/08 00:13:56;;;;;;;2.63;1.52;;;13.90;99.40;;;;;;5098548;28;20020;-81
2022/11/08 00:16:22;;;;;;;2.10;1.33;;;14.00;99.40;;;;;;5108843;28;20527;-81
2022/11/08 00:18:47;;;;;;;3.67;1.73;;;14.00;99.40;;;;;;5106790;28;20070;-81
2022/11/08 00:21:13;;;;;;;4.28;1.80;;;14.00;99.40;;;;;;5095612;28;20511;-80
2022/11/08 00:23:38;;;;;;;5.95;1.95;;;14.00;99.60;;;;;;5101098;28;20032;-81
2022/11/08 00:26:04;;;;;;;3.53;1.83;;;14.00;99.50;;;;;;5112789;28;20031;-79
2022/11/08 00:28:30;;;;;;;4.57;1.90;;;14.00;99.50;;;;;;5100472;28;20484;-79
2022/11/08 00:30:55;;;;;;;3.67;1.83;;;14.00;99.20;;;;;;5098832;28;20035;-79
2022/11/08 00:33:21;;;;;;;4.97;1.70;;;14.00;99.50;;;;;;5098363;28;20020;-79
2022/11/08 00:35:47;;;;;;;4.75;1.83;;;14.00;99.60;;;;;;5105162;28;20476;-79
2022/11/08 00:38:12;;;;;;;2.80;1.38;;;14.00;99.30;;;;;;5103260;28;20038;-80
2022/11/08 00:40:38;;;;;;;3.17;1.60;;;14.00;99.50;;;;;;5098874;28;20039;-82
2022/11/08 00:43:04;;;;;;;4.15;1.75;;;14.00;99.50;;;;;;5100046;28;20023;-82
2022/11/08 00:45:29;;;;;;;4.53;1.58;;;14.00;99.70;;;;;;5113204;28;20038;-83
2022/11/08 00:47:55;;;;;;;2.35;1.50;;;14.00;99.70;;;;;;5088284;28;20105;-81
2022/11/08 00:50:20;;;;;;;4.22;1.80;;;14.00;99.80;;;;;;5109552;28;20072;-80
2022/11/08 00:52:46;;;;;;;3.97;1.55;;;14.00;99.90;;;;;;5098253;28;20038;-81
2022/11/08 00:55:12;;;;;;;5.05;0.95;;;14.00;99.90;;;;;;5093123;28;20035;-80
2022/11/08 00:57:37;;;;;;;3.03;1.60;;;14.00;99.90;;;;;;5100882;28;20020;-80
2022/11/08 01:00:03;;;;;;;3.63;1.60;;;14.10;99.90;;;;;;5094969;28;20028;-81
2022/11/08 01:02:29;;;;;;;2.25;1.13;;;14.10;99.90;;;;;;5117196;28;20019;-80
2022/11/08 01:04:54;;;;;;;3.92;1.55;;;14.10;99.90;;;;;;5112686;28;20027;-81
2022/11/08 01:07:20;;;;;;;2.97;1.48;;;14.10;99.90;;;;;;5112477;28;20020;-85
2022/11/08 01:09:46;;;;;;;2.15;1.23;;;14.10;99.90;;;;;;5083787;28;20400;-86
2022/11/08 01:12:11;;;;;;;2.88;1.50;;;14.10;99.90;;;;;;5093088;28;20502;-84
2022/11/08 01:14:37;;;;;;;3.17;1.55;;;14.20;99.90;;;;;;5086378;28;20081;-84
2022/11/08 01:17:03;;;;;;;2.92;1.30;;;14.20;99.90;;;;;;5110496;28;20046;-84
2022/11/08 01:19:28;;;;;;;2.85;1.38;;;14.20;99.90;;;;;;5083835;28;20047;-83
2022/11/08 01:21:54;;;;;;;4.63;1.58;;;14.20;99.90;;;;;;5100270;28;20433;-83
2022/11/08 01:24:20;;;;;;;2.30;1.10;;;14.20;99.90;;;;;;5083985;28;20028;-83
2022/11/08 01:26:48;;;;;;;2.42;1.13;;;14.20;99.90;;;;;;5082661;28;20492;-83
2022/11/08 01:29:14;;;;;;;1.83;1.02;;;14.20;99.90;;;;;;5082963;28;20028;-83
2022/11/08 01:31:40;;;;;;;6.10;2.03;;;14.20;99.90;;;;;;5097312;28;20027;-83
2022/11/08 01:34:05;;;;;;;2.47;1.20;;;14.20;99.90;;;;;;5097443;28;20024;-83
2022/11/08 01:36:31;;;;;;;4.68;1.35;;;14.20;99.90;;;;;;5113177;28;20028;-83
2022/11/08 01:38:57;;;;;;;2.97;1.15;;;14.20;99.90;;;;;;5091644;28;20031;-81
2022/11/08 01:41:25;;;;;;;3.03;1.40;;;14.20;99.90;;;;;;5096678;28;20107;-83
2022/11/08 01:43:53;;;;;;;5.88;1.55;;;14.30;99.90;;;;;;5107707;28;20059;-83
2022/11/08 01:46:18;;;;;;;3.85;1.40;;;14.30;99.90;;;;;;5101692;28;20036;-83
2022/11/08 01:48:59;;;;;;;4.28;1.30;;;14.40;99.90;;;;;;5082198;28;20044;-83
2022/11/08 01:51:40;;;;;;;5.05;1.20;;;14.40;99.90;;;;;;5106090;28;20507;-83
2022/11/08 01:54:10;;;;;;;2.90;0.82;;;14.30;99.90;;;;;;5079407;28;20085;-82
2022/11/08 01:56:38;;;;;;;2.30;0.73;;;14.30;99.90;;;;;;5085502;28;20027;-82
2022/11/08 01:59:08;;;;;;;3.67;1.13;;;14.30;99.90;;;;;;5104060;28;20059;-83
2022/11/08 02:01:35;;;;;;;3.70;0.98;;;14.30;99.90;;;;;;5084238;28;20023;-83
2022/11/08 02:04:02;;;;;;;1.50;0.80;;;14.20;99.90;;;;;;5104546;28;20038;-83
2022/11/08 02:06:30;;;;;;;2.60;0.70;;;14.20;99.90;;;;;;5103555;28;20028;-83
2022/11/08 02:09:01;;;;;;;2.10;0.70;;;14.10;99.90;;;;;;5104787;28;20023;-83
2022/11/08 02:11:28;;;;;;;1.20;0.70;;;14.10;99.90;;;;;;5091346;28;20111;-83
2022/11/08 02:13:54;;;;;;;0.82;0.50;;;14.10;99.90;;;;;;5096699;28;20039;-82
2022/11/08 02:16:20;;;;;;;0.73;0.30;;;14.20;99.90;;;;;;5097150;28;20531;-82
2022/11/08 02:18:46;;;;;;;2.80;0.60;;;14.10;99.90;;;;;;5082578;28;20055;-82
2022/11/08 02:21:48;;;;;;;2.40;0.50;;;14.10;99.90;;;;;;5079066;28;20108;-82
2022/11/08 02:24:15;;;;;;;0.50;0.30;;;14.10;99.90;;;;;;5097380;28;20024;-88
2022/11/08 02:26:43;;;;;;;1.05;0.20;;;14.00;99.90;;;;;;5082888;28;20518;-85
2022/11/08 02:29:30;;;;;;;0.45;0.30;;;14.00;99.70;;;;;;5082442;28;20078;-85
2022/11/08 02:31:56;;;;;;;1.02;0.15;;;14.00;99.90;;;;;;5078809;28;20017;-84
2022/11/08 02:34:43;;;;;;;1.42;0.30;;;13.90;99.90;;;;;;5081828;28;20050;-84
2022/11/08 02:37:09;;;;;;;1.60;0.30;;;13.90;99.90;;;;;;5079570;28;20028;-84
2022/11/08 02:39:35;;;;;;;0.20;0.20;;;13.80;99.90;;;;;;5078663;28;20177;-83
2022/11/08 02:42:01;;;;;;;0.65;0.20;;;13.80;99.90;;;;;;5091649;28;20061;-83
2022/11/08 02:44:27;;;;;;;0.63;0.30;;;13.90;99.90;;;;;;5081957;28;20032;-83
2022/11/08 02:46:53;;;;;;;0.88;0.40;;;13.90;99.90;;;;;;5082247;28;20050;-83
2022/11/08 02:49:18;;;;;;;0.90;0.22;;;13.80;99.90;;;;;;5085364;28;20062;-83
2022/11/08 02:51:44;;;;;;;0.10;0.10;;;13.90;99.90;;;;;;5099206;28;20024;-83
2022/11/08 02:54:10;;;;;;;1.25;0.30;;;13.80;99.90;;;;;;5081874;28;20052;-83
2022/11/08 02:56:35;;;;;;;0.68;0.20;;;13.80;99.90;;;;;;5082164;28;20024;-83
2022/11/08 02:59:01;;;;;;;0.82;0.35;;;13.80;99.90;;;;;;5085050;28;20036;-83
2022/11/08 03:01:27;;;;;;;0.30;0.20;;;13.80;99.90;;;;;;5081046;28;20500;-83
2022/11/08 03:03:52;;;;;;;1.10;0.30;;;13.80;99.90;;;;;;5103690;28;20043;-83
2022/11/08 03:06:18;;;;;;;0.52;0.20;;;13.90;99.90;;;;;;5088335;28;20035;-83
2022/11/08 03:08:44;;;;;;;0.95;0.20;;;13.80;99.90;;;;;;5103296;28;20019;-83
2022/11/08 03:11:09;;;;;;;0.68;0.30;;;13.80;99.90;;;;;;5099071;28;20017;-83
2022/11/08 03:13:35;;;;;;;1.20;0.20;;;13.80;99.90;;;;;;5081943;28;20036;-84
2022/11/08 03:16:03;;;;;;;0.63;0.25;;;13.70;99.90;;;;;;5083458;28;20032;-83
2022/11/08 03:18:29;;;;;;;0.32;0.20;;;13.80;99.90;;;;;;5102783;28;20115;-83
2022/11/08 03:20:54;;;;;;;0.68;0.17;;;13.70;99.90;;;;;;5073963;28;20400;-82
2022/11/08 03:23:21;;;;;;;0.30;0.28;;;13.70;99.90;;;;;;5103288;28;20032;-82
2022/11/08 03:25:46;;;;;;;0.70;0.20;;;13.70;99.90;;;;;;5111056;28;20051;-80
2022/11/08 03:28:12;;;;;;;0.47;0.20;;;13.70;99.90;;;;;;5103539;28;20036;-81
2022/11/08 03:30:37;;;;;;;1.02;0.20;;;13.70;99.90;;;;;;5092942;28;20039;-81
2022/11/08 03:33:03;;;;;;;0.80;0.20;;;13.70;99.90;;;;;;5106717;28;20043;-80
2022/11/08 03:35:29;;;;;;;0.70;0.32;;;13.60;99.90;;;;;;5085189;28;20031;-80
2022/11/08 03:37:56;;;;;;;0.63;0.20;;;13.60;99.90;;;;;;5098050;28;20024;-80
2022/11/08 03:40:22;;;;;;;1.13;0.28;;;13.60;99.90;;;;;;5102755;28;20042;-83
2022/11/08 03:42:48;;;;;;;1.02;0.20;;;13.60;99.90;;;;;;5116558;28;20032;-82
2022/11/08 03:45:14;;;;;;;0.73;0.13;;;13.60;99.90;;;;;;5103009;28;20115;-82
2022/11/08 03:47:42;;;;;;;1.50;0.20;;;13.60;99.90;;;;;;5084510;28;20127;-82
2022/11/08 03:50:08;;;;;;;1.30;0.20;;;13.60;99.90;;;;;;5103467;28;20538;-83
2022/11/08 03:52:46;;;;;;;1.23;0.20;;;13.60;99.90;;;;;;5092409;28;20024;-84
2022/11/08 03:55:13;;;;;;;0.90;0.30;;;13.60;99.90;;;;;;5085529;28;20500;-83
2022/11/08 03:57:40;;;;;;;1.20;0.20;;;13.60;99.90;;;;;;5099581;28;20376;-84
2022/11/08 04:00:08;;;;;;;1.52;0.20;;;13.60;99.90;;;;;;5090380;28;20477;-84
2022/11/08 04:02:33;;;;;;;1.33;0.20;;;13.50;99.90;;;;;;5086642;28;20036;-87
2022/11/08 04:04:59;;;;;;;2.50;0.25;;;13.50;99.90;;;;;;5086517;28;20024;-86
2022/11/08 04:07:25;;;;;;;0.90;0.35;;;13.50;99.90;;;;;;5092906;28;20032;-85
2022/11/08 04:09:51;;;;;;;0.73;0.20;;;13.60;99.90;;;;;;5081668;28;20024;-85
2022/11/08 04:15:16;;;;;;;1.73;0.38;;;13.50;99.90;;;;;;5097838;28;20102;-81
2022/11/08 04:23:12;;;;;;;0.43;0.25;;;13.60;99.90;;;;;;5103693;28;20059;-84
2022/11/08 04:25:38;;;;;;;1.20;0.22;;;13.60;99.90;;;;;;5088675;28;20020;-83
2022/11/08 04:28:04;;;;;;;0.82;0.20;;;13.60;99.90;;;;;;5105169;28;20024;-83
2022/11/08 04:30:30;;;;;;;0.85;0.35;;;13.60;99.90;;;;;;5103022;28;20031;-83
2022/11/08 04:32:58;;;;;;;0.82;0.20;;;13.70;99.90;;;;;;5081785;28;20024;-83
2022/11/08 04:35:23;;;;;;;1.42;0.40;;;13.70;99.90;;;;;;5103490;28;20055;-83
2022/11/08 04:37:49;;;;;;;1.58;0.38;;;13.60;99.90;;;;;;5100548;28;20032;-83
2022/11/08 04:40:15;;;;;;;0.82;0.30;;;13.60;99.90;;;;;;5101683;28;20036;-83
2022/11/08 04:42:44;;;;;;;1.30;0.40;;;13.60;99.90;;;;;;5115085;28;20020;-85
2022/11/08 04:45:09;;;;;;;0.98;0.30;;;13.70;99.90;;;;;;5083701;28;20032;-82
2022/11/08 04:47:35;;;;;;;1.50;0.73;;;13.70;99.90;;;;;;5079818;28;20048;-82
2022/11/08 04:50:01;;;;;;;1.00;0.20;;;13.70;99.90;;;;;;5084685;28;20028;-82
2022/11/08 04:52:27;;;;;;;0.93;0.20;;;13.70;99.90;;;;;;5100055;28;20032;-83
2022/11/08 04:54:52;;;;;;;3.17;0.50;;;13.70;99.90;;;;;;5101879;28;20024;-81
2022/11/08 04:57:18;;;;;;;1.60;0.30;;;13.70;99.90;;;;;;5115763;28;20020;-81
2022/11/08 04:59:43;;;;;;;1.00;0.30;;;13.70;99.90;;;;;;5088032;28;20100;-81
2022/11/08 05:02:09;;;;;;;0.35;0.20;;;13.70;99.90;;;;;;5104593;28;20121;-81
2022/11/08 05:04:35;;;;;;;1.42;0.43;;;13.70;99.90;;;;;;5104788;28;20085;-81
2022/11/08 05:07:00;;;;;;;1.80;0.40;;;13.70;99.90;;;;;;5114207;28;20028;-81
2022/11/08 05:09:26;;;;;;;3.42;0.50;;;13.80;99.90;;;;;;5098004;28;20070;-81
2022/11/08 05:11:51;;;;;;;2.00;0.52;;;13.80;99.90;;;;;;5117075;28;20019;-81
2022/11/08 05:14:17;;;;;;;0.70;0.30;;;13.80;99.90;;;;;;5103846;28;20035;-80
2022/11/08 05:16:43;;;;;;;1.23;0.30;;;13.80;99.90;;;;;;5105677;28;20394;-80
2022/11/08 05:19:08;;;;;;;0.55;0.35;;;13.90;99.90;;;;;;5073129;28;20404;-80
2022/11/08 05:24:18;;;;;;;1.05;0.30;;;13.90;99.90;;;;;;5107622;28;20080;-81
2022/11/08 05:26:46;;;;;;;2.47;0.52;;;13.90;99.90;;;;;;5086183;28;20431;-81
2022/11/08 05:29:13;;;;;;;1.20;0.40;;;13.90;99.90;;;;;;5086363;28;20062;-81
2022/11/08 05:31:39;;;;;;;4.75;0.70;;;13.90;99.90;;;;;;5118250;28;20383;-81
2022/11/08 05:34:06;;;;;;;1.65;0.40;;;13.90;99.90;;;;;;5086141;28;20070;-82
2022/11/08 05:36:32;;;;;;;0.73;0.20;;;13.90;99.90;;;;;;5117927;28;20023;-82
2022/11/08 05:38:58;;;;;;;0.85;0.32;;;13.90;99.90;;;;;;5080395;28;20047;-82
2022/11/08 05:41:24;;;;;;;2.40;0.50;;;13.90;99.90;;;;;;5079336;28;20028;-82
2022/11/08 05:43:53;;;;;;;1.67;0.43;;;13.90;99.90;;;;;;5103685;28;20028;-83
2022/11/08 05:46:20;;;;;;;0.50;0.25;;;13.90;99.90;;;;;;5084980;28;20035;-82
2022/11/08 05:48:46;;;;;;;1.75;0.40;;;13.90;99.90;;;;;;5085981;28;20070;-83
2022/11/08 05:51:13;;;;;;;2.30;0.30;;;13.80;99.90;;;;;;5099705;28;20023;-82
2022/11/08 05:53:40;;;;;;;2.33;0.50;;;13.80;99.90;;;;;;5080566;28;20438;-83
2022/11/08 05:56:06;;;;;;;3.35;0.60;;;13.80;99.90;;;;;;5097502;28;20515;-85
2022/11/08 05:58:34;;;;;;;2.95;0.73;;;13.80;99.90;;;;;;5113168;28;20032;-86
2022/11/08 06:01:12;;;;;;;6.22;0.98;;;13.80;99.90;;;;;;5110421;28;20028;-85
2022/11/08 06:03:38;;;;;;;3.55;0.70;;;13.80;99.90;;;;;;5108445;28;20502;-84
2022/11/08 06:06:10;;;;;;;4.65;0.90;;;13.80;99.90;;;;;;5101228;28;20385;-82
2022/11/08 06:08:36;;;;;;;4.57;0.75;;;13.80;99.90;;;;;;5098859;28;20035;-82
2022/11/08 06:11:07;;;;;;;8.65;1.17;;;13.80;99.90;;;;;;5085959;28;20011;-83
2022/11/08 06:13:33;;;;;;;4.32;0.98;;;13.80;99.90;;;;;;5082499;28;20028;-83
2022/11/08 06:16:04;;;;;;;5.40;0.80;;;13.80;99.90;;;;;;5078030;28;20031;-82
2022/11/08 06:18:30;;;;;;;7.25;1.10;;;13.80;99.90;;;;;;5097353;28;20534;-82
2022/11/08 06:20:59;;;;;;;2.60;0.77;;;13.80;99.90;;;;;;5084889;28;20040;-82
2022/11/08 06:23:26;;;;;;;4.30;1.00;;;13.80;99.90;;;;;;5085600;28;20036;-82
2022/11/08 06:25:52;;;;;;;7.28;1.23;;;13.90;99.90;;;;;;5117532;28;20126;-83
2022/11/08 06:28:17;;;;;;;5.25;0.98;;;13.90;99.90;;;;;;5099849;28;20059;-83
2022/11/08 06:30:43;;;;;;;3.58;0.93;;;13.90;99.90;;;;;;5085509;28;20046;-83
2022/11/08 06:33:09;;;;;;;6.35;1.17;;;13.90;99.90;;;;;;5109688;28;20538;-83
2022/11/08 06:35:36;;;;;;;7.95;1.30;;;13.90;99.90;;;;;;5100136;28;20028;-83
2022/11/08 06:38:02;;;;;;;4.22;1.20;;;13.90;99.90;;;;;;5096458;28;20035;-83
2022/11/08 06:40:28;;;;;;;7.97;1.27;;;13.90;99.90;;;;;;5101672;28;20051;-80
2022/11/08 06:42:53;;;;;;;5.50;1.17;;;13.90;99.90;;;;;;5086371;28;20028;-80
2022/11/08 06:45:19;;;;;;;1.85;0.63;;;13.90;99.90;;;;;;5112211;28;20031;-80
2022/11/08 06:47:45;;;;;;;1.67;0.60;;;13.90;99.90;;;;;;5096667;28;20052;-80
2022/11/08 06:50:11;;;;;;;5.45;1.02;;;14.00;99.90;;;;;;5116998;28;20032;-83
2022/11/08 06:52:36;;;;;;;3.90;1.00;;;13.90;99.90;;;;;;5104735;28;20047;-82
2022/11/08 06:55:02;;;;;;;7.68;1.65;;;14.00;99.90;;;;;;5117605;28;20092;-82
2022/11/08 06:57:28;;;;;;;5.32;1.30;;;14.00;99.90;;;;;;5115139;28;20020;-81
2022/11/08 06:59:53;;;;;;;3.60;0.80;;;14.00;99.90;;;;;;5102244;28;20024;-82
2022/11/08 07:02:19;;;;;;;2.17;0.85;;;14.00;99.90;;;;;;5121138;28;20031;-82
2022/11/08 07:04:45;;;;;;;5.90;1.15;;;14.00;99.90;;;;;;5096011;28;20016;-81
2022/11/08 07:07:10;;;;;;;3.50;1.00;;;14.00;99.90;;;;;;5120629;28;20128;-81
2022/11/08 07:09:36;;;;;;;12.00;1.63;;;13.90;99.90;;;;;;5092575;28;20024;-81
2022/11/08 07:12:01;;;;;;;3.72;0.90;;;14.00;99.90;;;;;;5121056;28;20057;-80
2022/11/08 07:14:27;;;;;;;6.82;1.50;;;14.00;99.90;;;;;;5121079;28;20019;-81
2022/11/08 07:16:53;;;;;;;3.83;1.10;;;14.00;99.90;;;;;;5120857;28;20034;-80
2022/11/08 07:19:18;;;;;;;6.78;1.30;;;14.00;99.90;;;;;;5120735;28;20024;-79
2022/11/08 07:21:44;;;;;;;5.60;1.23;;;14.00;99.90;;;;;;5120483;28;20468;-80
2022/11/08 07:24:09;;;;;;;5.28;1.20;;;14.00;99.90;;;;;;5121123;28;20480;-79
2022/11/08 07:26:35;;;;;;;7.93;1.38;;;14.00;99.90;;;;;;5110696;28;20032;-79
2022/11/08 07:29:01;;;;;;;7.30;1.20;;;14.00;99.90;;;;;;5118406;28;20020;-79
2022/11/08 07:31:26;;;;;;;9.60;1.58;;;14.00;99.90;;;;;;5095399;28;20454;-82
2022/11/08 07:33:52;;;;;;;8.38;1.33;;;14.00;99.90;;;;;;5102507;28;20426;-83
2022/11/08 07:36:18;;;;;;;3.55;0.90;;;14.00;99.90;;;;;;5102016;28;20049;-83
2022/11/08 07:38:43;;;;;;;5.47;1.23;;;14.00;99.90;;;;;;5115502;28;20472;-83
2022/11/08 07:41:09;;;;;;;6.47;1.15;;;14.00;99.90;;;;;;5118140;28;20118;-79
2022/11/08 07:43:35;;;;;;;5.18;1.20;;;14.00;99.90;;;;;;5086763;28;20027;-80
2022/11/08 07:46:01;;;;;;;4.13;1.25;;;14.00;99.90;;;;;;5109843;28;20032;-79
2022/11/08 07:48:28;;;;;;;7.22;1.63;;;14.00;99.90;;;;;;5098566;28;20460;-79
2022/11/08 07:50:54;;;;;;;3.78;1.05;;;14.00;99.90;;;;;;5117541;28;20023;-78
2022/11/08 07:53:20;;;;;;;6.13;1.10;;;14.10;99.90;;;;;;5097415;28;20503;-78
2022/11/08 07:55:47;;;;;;;6.90;1.33;;;14.10;99.90;;;;;;5113787;28;20462;-79
2022/11/08 07:58:14;;;;;;;6.05;1.15;;;14.10;99.90;;;;;;5101335;28;20038;-79
2022/11/08 08:00:41;;;;;;;4.07;0.80;;;14.10;99.90;;;;;;5094320;28;20031;-78
2022/11/08 08:03:09;;;;;;;7.82;1.17;;;14.10;99.90;;;;;;5118799;28;20024;-78
2022/11/08 08:05:37;;;;;;;6.47;1.30;;;14.20;99.90;;;;;;5119721;28;20059;-79
2022/11/08 08:08:04;;;;;;;7.68;1.48;;;14.20;99.90;;;;;;5119481;28;20026;-78
2022/11/08 08:10:30;;;;;;;7.60;1.55;;;14.20;99.90;;;;;;5119893;28;20027;-82
2022/11/08 08:12:56;;;;;;;7.38;1.75;;;14.30;99.90;;;;;;5119485;28;20011;-73
2022/11/08 08:15:23;;;;;;;5.43;1.15;;;14.40;99.90;;;;;;5118817;28;20031;-79
2022/11/08 08:17:49;;;;;;;4.32;1.10;;;14.40;99.90;;;;;;5119734;28;20063;-82
2022/11/08 08:20:14;;;;;;;6.32;1.50;;;14.40;99.90;;;;;;5117224;28;20036;-76
2022/11/08 08:22:44;;;;;;;7.32;1.48;;;14.50;99.90;;;;;;5116943;28;20027;-77
2022/11/08 08:25:10;;;;;;;9.10;1.58;;;14.50;99.90;;;;;;5119438;28;20027;-76
2022/11/08 08:27:36;;;;;;;9.82;1.85;;;14.50;99.90;;;;;;5110793;28;20073;-77
2022/11/08 08:30:02;;;;;;;7.65;1.38;;;14.50;99.90;;;;;;5105223;28;20094;-76
2022/11/08 08:32:28;;;;;;;6.63;1.20;;;14.50;99.90;;;;;;5099836;28;20024;-78
2022/11/08 08:34:53;;;;;;;6.05;1.10;;;14.50;99.90;;;;;;5091637;28;20433;-77
2022/11/08 08:37:19;;;;;;;6.97;1.10;;;14.50;99.90;;;;;;5118580;28;20055;-77
2022/11/08 08:39:45;;;;;;;7.90;1.20;;;14.50;99.90;;;;;;5101211;28;20028;-77
2022/11/08 08:42:11;;;;;;;11.07;2.03;;;14.50;99.90;;;;;;5097012;28;20023;-77
2022/11/08 08:44:36;;;;;;;6.43;1.15;;;14.50;99.90;;;;;;5096609;28;20028;-77
2022/11/08 08:47:02;;;;;;;3.25;1.05;;;14.60;99.90;;;;;;5098989;28;20051;-77
2022/11/08 08:49:27;;;;;;;6.07;1.25;;;14.60;99.90;;;;;;5098453;28;20362;-78
2022/11/08 08:51:53;;;;;;;9.88;1.58;;;14.60;99.90;;;;;;5096737;28;20016;-77
2022/11/08 08:54:19;;;;;;;9.30;1.80;;;14.60;99.90;;;;;;5097374;28;20024;-77
2022/11/08 08:56:44;;;;;;;10.20;1.88;;;14.60;99.90;;;;;;5097354;28;20484;-77
2022/11/08 08:59:10;;;;;;;5.03;1.15;;;14.60;99.90;;;;;;5079949;28;20105;-78
2022/11/08 09:01:36;;;;;;;7.53;1.60;;;14.70;99.90;;;;;;5097871;28;20024;-77
2022/11/08 09:04:03;;;;;;;4.75;1.40;;;14.70;99.90;;;;;;5098409;28;20061;-77
2022/11/08 09:06:28;;;;;;;8.13;1.85;;;14.70;99.90;;;;;;5097402;28;20030;-77
2022/11/08 09:08:54;;;;;;;7.63;1.70;;;14.70;99.90;;;;;;5097269;28;20024;-77
2022/11/08 09:11:20;;;;;;;8.75;1.67;;;14.70;99.90;;;;;;5097998;28;20024;-77
2022/11/08 09:13:45;;;;;;;14.50;2.38;;;14.80;99.90;;;;;;5097137;28;20027;-77
2022/11/08 09:16:12;;;;;;;6.00;1.48;;;14.80;99.90;;;;;;5097683;28;20026;-77
2022/11/08 09:18:38;;;;;;;3.97;1.25;;;14.80;99.90;;;;;;5097842;28;20032;-77
2022/11/08 09:21:04;;;;;;;5.75;1.33;;;14.80;99.90;;;;;;5097563;28;20521;-77
2022/11/08 09:23:29;;;;;;;7.70;1.10;;;14.90;99.90;;;;;;5097387;28;20040;-77
2022/11/08 09:26:00;;;;;;;6.45;1.65;;;14.90;99.90;;;;;;5097733;28;20034;-77
2022/11/08 09:28:26;;;;;;;10.63;2.30;;;14.90;99.90;;;;;;5109523;28;20039;-77
2022/11/08 09:30:51;;;;;;;6.00;1.40;;;14.90;99.90;;;;;;5118116;28;20024;-77
2022/11/08 09:33:17;;;;;;;5.40;1.27;;;15.00;99.90;;;;;;5118277;28;20503;-77
2022/11/08 09:35:45;;;;;;;6.65;1.50;;;14.90;99.90;;;;;;5117968;28;20027;-78
2022/11/08 09:38:10;;;;;;;6.32;1.35;;;14.90;99.90;;;;;;5105875;28;20099;-77
2022/11/08 09:40:47;;;;;;;7.10;1.55;;;15.00;99.90;;;;;;5097297;28;20066;-77
2022/11/08 09:43:45;;;;;;;6.10;1.70;;;15.00;99.90;;;;;;5097653;28;20031;-77
2022/11/08 09:46:17;;;;;;;8.35;1.40;;;15.00;99.90;;;;;;5079605;28;20035;-77
2022/11/08 09:48:43;;;;;;;5.90;1.23;;;15.00;99.90;;;;;;5115202;28;20071;-78
2022/11/08 09:51:14;;;;;;;7.10;1.30;;;15.00;99.90;;;;;;5117739;28;20452;-83
2022/11/08 09:53:56;;;;;;;9.50;1.40;;;15.00;99.90;;;;;;5118950;28;20063;-79
2022/11/08 09:56:33;;;;;;;6.85;1.20;;;15.00;99.90;;;;;;5108084;28;20439;-75
2022/11/08 09:59:21;;;;;;;7.00;1.00;;;15.00;99.90;;;;;;5106547;28;20119;-74
2022/11/08 10:01:48;;;;;;;7.20;1.30;;;15.00;99.90;;;;;;5117177;28;20019;-74
2022/11/08 10:04:21;;;;;;;7.20;1.23;;;15.10;99.90;;;;;;5116829;28;20081;-74
2022/11/08 10:06:56;;;;;;;4.93;1.00;;;15.10;99.90;;;;;;5116114;28;20387;-75
2022/11/08 10:09:49;;;;;;;7.63;1.50;;;15.10;99.90;;;;;;5111892;28;20034;-76
2022/11/08 10:12:43;;;;;;;6.97;1.50;;;15.10;99.90;;;;;;5095513;28;20119;-76
2022/11/08 10:15:45;;;;;;;4.45;0.98;;;15.10;99.90;;;;;;5099247;28;20035;-76
2022/11/08 10:18:32;;;;;;;5.78;1.20;;;15.20;99.90;;;;;;5031610;28;20500;-76
2022/11/08 10:21:13;;;;;;;3.25;0.88;;;15.20;99.90;;;;;;5098686;28;20080;-76
2022/11/08 10:23:49;;;;;;;5.07;1.45;;;15.20;99.90;;;;;;5098825;28;20020;-76
2022/11/08 10:26:16;;;;;;;6.95;1.15;;;15.20;99.90;;;;;;5101269;28;20084;-75
2022/11/08 10:28:50;;;;;;;10.73;1.85;;;15.30;99.90;;;;;;5103249;28;20019;-74
2022/11/08 10:31:18;;;;;;;6.53;1.40;;;15.30;99.90;;;;;;5121254;28;20023;-74
2022/11/08 10:33:49;;;;;;;6.28;1.60;;;15.30;99.90;;;;;;5121094;28;20019;-74
2022/11/08 10:36:38;;;;;;;6.25;2.05;;;15.30;99.90;;;;;;5121102;28;20079;-74
2022/11/08 10:39:10;;;;;;;9.52;2.05;;;15.40;99.90;;;;;;5109474;28;20107;-74
2022/11/08 10:41:54;;;;;;;6.60;1.58;;;15.40;99.90;;;;;;5100638;28;20036;-74
2022/11/08 10:44:23;;;;;;;9.52;1.75;;;15.50;99.90;;;;;;5091800;28;20020;-74
2022/11/08 10:46:54;;;;;;;10.98;2.42;;;15.50;99.90;;;;;;5106852;28;20047;-76
2022/11/08 10:49:28;;;;;;;11.48;2.15;;;15.50;99.90;;;;;;5121020;28;20027;-75
2022/11/08 10:52:15;;;;;;;7.10;1.50;;;15.50;99.90;;;;;;5117070;28;20035;-75
2022/11/08 10:54:43;;;;;;;13.02;2.33;;;15.60;99.90;;;;;;5117773;28;20020;-75
2022/11/08 10:57:15;;;;;;;8.68;1.98;;;15.60;99.90;;;;;;5100272;28;20028;-75
2022/11/08 10:59:41;;;;;;;8.90;1.88;;;15.60;99.90;;;;;;5099619;28;20099;-74
2022/11/08 11:02:32;;;;;;;14.05;2.33;;;15.70;99.90;;;;;;5099904;28;20034;-74
2022/11/08 11:05:20;;;;;;;7.45;1.67;;;15.70;99.90;;;;;;5081409;28;20111;-75
2022/11/08 11:08:01;;;;;;;10.90;2.13;;;15.70;99.90;;;;;;5099277;28;20031;-74
2022/11/08 11:10:36;;;;;;;13.98;2.15;;;15.70;99.90;;;;;;5100140;28;20035;-75
2022/11/08 11:13:09;;;;;;;9.75;2.28;;;15.70;99.90;;;;;;5088273;28;20020;-76
2022/11/08 11:15:50;;;;;;;11.63;2.40;;;15.80;99.90;;;;;;5087786;28;20035;-82
2022/11/08 11:18:38;;;;;;;11.63;2.22;;;15.80;99.90;;;;;;5095439;28;20027;-78
2022/11/08 11:21:06;;;;;;;9.57;1.85;;;15.90;99.90;;;;;;5100132;28;20028;-77
2022/11/08 11:23:58;;;;;;;15.02;2.80;;;15.90;99.90;;;;;;5096458;28;20024;-74
2022/11/08 11:26:47;;;;;;;13.60;2.10;;;16.00;99.90;;;;;;5099391;28;20684;-82
2022/11/08 11:29:17;;;;;;;8.15;1.60;;;16.10;99.90;;;;;;5091981;28;20460;-81
2022/11/08 11:31:46;;;;;;;9.02;2.15;;;16.20;99.90;;;;;;5095118;28;20460;-81
2022/11/08 11:34:17;;;;;;;15.00;2.42;;;16.20;99.90;;;;;;5107974;28;20024;-82
2022/11/08 11:37:12;;;;;;;7.45;1.98;;;16.20;99.90;;;;;;5120384;28;20102;-78
2022/11/08 11:39:45;;;;;;;11.80;2.42;;;16.10;99.90;;;;;;5085572;28;20062;-76
2022/11/08 11:42:26;;;;;;;;;;;16.10;99.90;;;;;;5119700;28;20024;-81
2022/11/08 11:45:07;;;;;;;11.13;1.90;;;16.10;99.90;;;;;;5119664;28;19904;-80
2022/11/08 11:47:42;;;;;;;6.72;1.20;;;16.10;99.90;;;;;;5109036;28;20097;-85
2022/11/08 11:50:20;;;;;;;12.68;2.38;;;16.10;99.90;;;;;;5120403;28;20073;-82
2022/11/08 11:52:47;;;;;;;8.60;2.00;;;16.10;99.90;;;;;;5120309;28;20037;-87
2022/11/08 11:55:16;;;;;;;7.18;1.38;;;16.10;99.90;;;;;;5120216;28;20492;-82
2022/11/08 11:58:16;;;;;;;10.10;1.65;;;16.20;99.90;;;;;;5120167;28;20081;-74
2022/11/08 12:00:52;;;;;;;10.60;2.10;;;16.20;99.90;;;;;;5088938;28;20067;-70
2022/11/08 12:03:48;;;;;;;15.10;1.98;;;16.20;99.90;;;;;;5120055;28;20403;-71
2022/11/08 12:06:37;;;;;;;9.82;1.83;;;16.20;99.90;;;;;;5101396;28;20028;-74
2022/11/08 12:09:08;;;;;;;11.07;1.80;;;16.20;99.90;;;;;;5120065;28;20020;-70
2022/11/08 12:11:40;;;;;;;11.43;2.00;;;16.30;99.90;;;;;;5119876;28;20024;-72
2022/11/08 12:14:25;;;;;;;9.43;1.45;;;16.30;99.90;;;;;;5119913;28;20041;-80
2022/11/08 12:17:18;;;;;;;7.95;1.70;;;16.30;99.90;;;;;;5117759;28;20395;-83
2022/11/08 12:19:53;;;;;;;9.07;2.33;;;16.20;99.90;;;;;;5119874;28;20034;-84
2022/11/08 12:22:30;;;;;;;5.47;1.20;;;16.30;99.90;;;;;;5119439;28;20028;-82
2022/11/08 12:25:00;;;;;;;7.53;1.30;;;16.30;99.90;;;;;;5101506;28;20023;-83
2022/11/08 12:27:58;;;;;;;8.25;1.73;;;16.30;99.80;;;;;;5092116;28;20034;-74
2022/11/08 12:30:41;;;;;;;9.40;1.60;;;16.40;99.90;;;;;;5097412;28;20024;-78
2022/11/08 12:33:16;;;;;;;;;;;16.40;99.90;;;;;;5091893;28;20023;-76
2022/11/08 12:36:10;;;;;;;5.95;1.20;;;16.40;99.70;;;;;;5119281;28;19911;-81
2022/11/08 12:39:01;;;;;;;9.93;1.50;;;16.40;99.90;;;;;;5111510;28;20028;-75
2022/11/08 12:41:53;;;;;;;10.68;1.58;;;16.30;99.70;;;;;;5093068;28;20049;-77
2022/11/08 12:44:43;;;;;;;8.00;1.55;;;16.30;99.60;;;;;;5092254;28;20100;-76
2022/11/08 12:47:09;;;;;;;6.43;1.08;;;16.40;99.60;;;;;;5094455;28;20097;-78
2022/11/08 12:50:22;;;;;;;10.68;2.08;;;16.40;99.80;;;;;;5099940;28;20028;-77
2022/11/08 12:53:33;;;;;;;6.80;1.48;;;16.50;98.30;;;;;;5089871;28;20024;-76
2022/11/08 12:56:02;;;;;;;8.82;2.10;;;16.50;99.90;;;;;;5072214;28;20500;-77
2022/11/08 12:58:35;;;;;;;8.35;1.73;;;16.60;98.80;;;;;;5078863;28;20031;-76
2022/11/08 13:01:08;;;;;;;12.73;1.90;;;16.60;99.10;;;;;;5097964;28;20028;-76
2022/11/08 13:04:04;;;;;;;11.45;1.90;;;16.60;98.60;;;;;;5098122;28;20507;-77
2022/11/08 13:06:45;;;;;;;12.80;2.05;;;16.60;99.20;;;;;;5097442;28;20039;-77
2022/11/08 13:09:16;;;;;;;13.43;2.15;;;16.70;98.70;;;;;;5098153;28;20020;-77
2022/11/08 13:12:07;;;;;;;10.75;1.95;;;16.60;98.30;;;;;;5097668;28;20019;-77
2022/11/08 13:14:33;;;;;;;7.95;1.75;;;16.70;98.90;;;;;;5079680;28;20527;-77
2022/11/08 13:17:12;;;;;;;9.23;1.70;;;16.60;98.70;;;;;;5097461;28;20016;-77
2022/11/08 13:19:50;;;;;;;7.65;1.60;;;16.70;98.30;;;;;;5097361;28;20488;-76